sensor_id;sensor_type;location;lat;lon;timestamp;P1;durP1;ratioP1;P2;durP2;ratioP2
61635;SDS011;59438;45.014;39.006;2023-04-24T00:00:35;4.75;;;3.13;;
61635;SDS011;59438;45.014;39.006;2023-04-24T00:03:01;7.20;;;3.25;;
61635;SDS011;59438;45.014;39.006;2023-04-24T00:05:28;6.53;;;3.70;;
61635;SDS011;59438;45.014;39.006;2023-04-24T00:07:54;10.25;;;3.28;;
61635;SDS011;59438;45.014;39.006;2023-04-24T00:10:22;9.27;;;3.45;;
61635;SDS011;59438;45.014;39.006;2023-04-24T00:12:48;8.15;;;3.50;;
61635;SDS011;59438;45.014;39.006;2023-04-24T00:15:15;5.20;;;3.17;;
61635;SDS011;59438;45.014;39.006;2023-04-24T00:17:41;6.70;;;3.25;;
61635;SDS011;59438;45.014;39.006;2023-04-24T00:20:08;7.10;;;3.40;;
61635;SDS011;59438;45.014;39.006;2023-04-24T00:22:35;10.80;;;3.47;;
61635;SDS011;59438;45.014;39.006;2023-04-24T00:25:01;5.95;;;3.33;;
61635;SDS011;59438;45.014;39.006;2023-04-24T00:27:29;6.78;;;3.20;;
61635;SDS011;59438;45.014;39.006;2023-04-24T00:29:55;4.95;;;2.88;;
61635;SDS011;59438;45.014;39.006;2023-04-24T00:32:21;5.93;;;2.92;;
61635;SDS011;59438;45.014;39.006;2023-04-24T00:34:48;4.85;;;2.78;;
61635;SDS011;59438;45.014;39.006;2023-04-24T00:37:14;5.93;;;3.17;;
61635;SDS011;59438;45.014;39.006;2023-04-24T00:39:40;5.60;;;3.17;;
61635;SDS011;59438;45.014;39.006;2023-04-24T00:42:07;6.95;;;2.83;;
61635;SDS011;59438;45.014;39.006;2023-04-24T00:44:35;6.15;;;3.08;;
61635;SDS011;59438;45.014;39.006;2023-04-24T00:47:01;6.25;;;3.40;;
61635;SDS011;59438;45.014;39.006;2023-04-24T00:49:27;4.18;;;3.15;;
61635;SDS011;59438;45.014;39.006;2023-04-24T00:51:54;6.10;;;3.60;;
61635;SDS011;59438;45.014;39.006;2023-04-24T00:54:20;6.53;;;3.45;;
61635;SDS011;59438;45.014;39.006;2023-04-24T00:56:46;5.22;;;3.40;;
61635;SDS011;59438;45.014;39.006;2023-04-24T00:59:14;5.13;;;3.03;;
61635;SDS011;59438;45.014;39.006;2023-04-24T01:01:44;7.10;;;2.90;;
61635;SDS011;59438;45.014;39.006;2023-04-24T01:04:11;6.97;;;3.15;;
61635;SDS011;59438;45.014;39.006;2023-04-24T01:06:38;6.43;;;3.30;;
61635;SDS011;59438;45.014;39.006;2023-04-24T01:09:05;6.40;;;3.22;;
61635;SDS011;59438;45.014;39.006;2023-04-24T01:11:32;7.78;;;3.30;;
61635;SDS011;59438;45.014;39.006;2023-04-24T01:13:59;5.35;;;3.28;;
61635;SDS011;59438;45.014;39.006;2023-04-24T01:16:26;8.90;;;3.15;;
61635;SDS011;59438;45.014;39.006;2023-04-24T01:18:54;7.07;;;3.25;;
61635;SDS011;59438;45.014;39.006;2023-04-24T01:21:21;5.53;;;2.88;;
61635;SDS011;59438;45.014;39.006;2023-04-24T01:23:50;10.60;;;3.65;;
61635;SDS011;59438;45.014;39.006;2023-04-24T01:26:17;5.35;;;3.22;;
61635;SDS011;59438;45.014;39.006;2023-04-24T01:28:44;8.15;;;3.15;;
61635;SDS011;59438;45.014;39.006;2023-04-24T01:31:10;5.18;;;3.40;;
61635;SDS011;59438;45.014;39.006;2023-04-24T01:33:37;6.53;;;3.50;;
61635;SDS011;59438;45.014;39.006;2023-04-24T01:36:03;6.35;;;3.17;;
61635;SDS011;59438;45.014;39.006;2023-04-24T01:38:30;4.15;;;3.08;;
61635;SDS011;59438;45.014;39.006;2023-04-24T01:40:58;8.98;;;3.50;;
61635;SDS011;59438;45.014;39.006;2023-04-24T01:43:24;8.25;;;3.60;;
61635;SDS011;59438;45.014;39.006;2023-04-24T01:45:51;6.18;;;3.45;;
61635;SDS011;59438;45.014;39.006;2023-04-24T01:48:17;6.85;;;3.53;;
61635;SDS011;59438;45.014;39.006;2023-04-24T01:50:43;7.18;;;3.47;;
61635;SDS011;59438;45.014;39.006;2023-04-24T01:53:10;5.63;;;3.55;;
61635;SDS011;59438;45.014;39.006;2023-04-24T01:55:36;6.22;;;3.38;;
61635;SDS011;59438;45.014;39.006;2023-04-24T01:58:04;5.05;;;3.47;;
61635;SDS011;59438;45.014;39.006;2023-04-24T02:00:30;5.55;;;3.38;;
61635;SDS011;59438;45.014;39.006;2023-04-24T02:02:57;5.28;;;3.40;;
61635;SDS011;59438;45.014;39.006;2023-04-24T02:05:23;6.53;;;3.67;;
61635;SDS011;59438;45.014;39.006;2023-04-24T02:07:49;7.78;;;3.70;;
61635;SDS011;59438;45.014;39.006;2023-04-24T02:10:16;7.00;;;3.72;;
61635;SDS011;59438;45.014;39.006;2023-04-24T02:12:42;10.15;;;3.75;;
61635;SDS011;59438;45.014;39.006;2023-04-24T02:15:10;7.20;;;3.50;;
61635;SDS011;59438;45.014;39.006;2023-04-24T02:17:37;5.75;;;3.60;;
61635;SDS011;59438;45.014;39.006;2023-04-24T02:20:03;5.63;;;3.72;;
61635;SDS011;59438;45.014;39.006;2023-04-24T02:22:30;8.10;;;3.85;;
61635;SDS011;59438;45.014;39.006;2023-04-24T02:24:57;9.88;;;3.90;;
61635;SDS011;59438;45.014;39.006;2023-04-24T02:27:23;7.32;;;4.07;;
61635;SDS011;59438;45.014;39.006;2023-04-24T02:29:49;9.02;;;4.00;;
61635;SDS011;59438;45.014;39.006;2023-04-24T02:32:17;4.88;;;3.53;;
61635;SDS011;59438;45.014;39.006;2023-04-24T02:34:43;8.70;;;3.70;;
61635;SDS011;59438;45.014;39.006;2023-04-24T02:37:10;6.68;;;3.90;;
61635;SDS011;59438;45.014;39.006;2023-04-24T02:39:36;5.60;;;3.88;;
61635;SDS011;59438;45.014;39.006;2023-04-24T02:42:02;5.47;;;3.83;;
61635;SDS011;59438;45.014;39.006;2023-04-24T02:44:29;7.38;;;4.00;;
61635;SDS011;59438;45.014;39.006;2023-04-24T02:46:55;7.40;;;4.07;;
61635;SDS011;59438;45.014;39.006;2023-04-24T02:49:23;10.52;;;4.05;;
61635;SDS011;59438;45.014;39.006;2023-04-24T02:51:49;7.32;;;4.25;;
61635;SDS011;59438;45.014;39.006;2023-04-24T02:54:16;8.88;;;4.05;;
61635;SDS011;59438;45.014;39.006;2023-04-24T02:56:42;10.98;;;4.57;;
61635;SDS011;59438;45.014;39.006;2023-04-24T02:59:08;11.82;;;4.20;;
61635;SDS011;59438;45.014;39.006;2023-04-24T03:01:35;8.32;;;4.05;;
61635;SDS011;59438;45.014;39.006;2023-04-24T03:04:01;10.30;;;4.28;;
61635;SDS011;59438;45.014;39.006;2023-04-24T03:06:29;9.73;;;4.13;;
61635;SDS011;59438;45.014;39.006;2023-04-24T03:08:55;9.95;;;4.35;;
61635;SDS011;59438;45.014;39.006;2023-04-24T03:11:22;8.27;;;4.05;;
61635;SDS011;59438;45.014;39.006;2023-04-24T03:13:48;6.47;;;3.72;;
61635;SDS011;59438;45.014;39.006;2023-04-24T03:16:14;9.57;;;4.28;;
61635;SDS011;59438;45.014;39.006;2023-04-24T03:18:40;12.30;;;4.38;;
61635;SDS011;59438;45.014;39.006;2023-04-24T03:21:07;12.63;;;4.30;;
61635;SDS011;59438;45.014;39.006;2023-04-24T03:23:35;11.65;;;4.95;;
61635;SDS011;59438;45.014;39.006;2023-04-24T03:26:01;10.77;;;5.25;;
61635;SDS011;59438;45.014;39.006;2023-04-24T03:28:27;11.18;;;4.72;;
61635;SDS011;59438;45.014;39.006;2023-04-24T03:30:53;11.40;;;4.45;;
61635;SDS011;59438;45.014;39.006;2023-04-24T03:33:20;12.43;;;4.95;;
61635;SDS011;59438;45.014;39.006;2023-04-24T03:35:46;9.63;;;4.53;;
61635;SDS011;59438;45.014;39.006;2023-04-24T03:38:12;9.75;;;3.92;;
61635;SDS011;59438;45.014;39.006;2023-04-24T03:40:40;12.90;;;4.32;;
61635;SDS011;59438;45.014;39.006;2023-04-24T03:43:06;15.05;;;4.47;;
61635;SDS011;59438;45.014;39.006;2023-04-24T03:45:33;5.50;;;4.20;;
61635;SDS011;59438;45.014;39.006;2023-04-24T03:47:59;10.88;;;4.20;;
61635;SDS011;59438;45.014;39.006;2023-04-24T03:50:25;6.75;;;4.40;;
61635;SDS011;59438;45.014;39.006;2023-04-24T03:52:52;15.25;;;4.82;;
61635;SDS011;59438;45.014;39.006;2023-04-24T03:55:18;16.15;;;4.63;;
61635;SDS011;59438;45.014;39.006;2023-04-24T03:57:46;16.25;;;4.90;;
61635;SDS011;59438;45.014;39.006;2023-04-24T04:00:12;21.73;;;4.80;;
61635;SDS011;59438;45.014;39.006;2023-04-24T04:02:39;16.55;;;5.45;;
61635;SDS011;59438;45.014;39.006;2023-04-24T04:05:05;19.23;;;5.65;;
61635;SDS011;59438;45.014;39.006;2023-04-24T04:07:32;18.23;;;6.07;;
61635;SDS011;59438;45.014;39.006;2023-04-24T04:09:58;23.35;;;5.93;;
61635;SDS011;59438;45.014;39.006;2023-04-24T04:12:25;13.88;;;5.85;;
61635;SDS011;59438;45.014;39.006;2023-04-24T04:14:52;16.23;;;5.72;;
61635;SDS011;59438;45.014;39.006;2023-04-24T04:17:19;12.10;;;5.28;;
61635;SDS011;59438;45.014;39.006;2023-04-24T04:19:45;13.93;;;5.15;;
61635;SDS011;59438;45.014;39.006;2023-04-24T04:22:11;13.65;;;5.30;;
61635;SDS011;59438;45.014;39.006;2023-04-24T04:24:38;9.38;;;5.03;;
61635;SDS011;59438;45.014;39.006;2023-04-24T04:27:04;11.85;;;5.03;;
61635;SDS011;59438;45.014;39.006;2023-04-24T04:29:30;13.23;;;5.25;;
61635;SDS011;59438;45.014;39.006;2023-04-24T04:31:58;18.55;;;5.57;;
61635;SDS011;59438;45.014;39.006;2023-04-24T04:34:25;18.80;;;5.30;;
61635;SDS011;59438;45.014;39.006;2023-04-24T04:36:51;17.67;;;5.45;;
61635;SDS011;59438;45.014;39.006;2023-04-24T04:39:17;14.43;;;5.43;;
61635;SDS011;59438;45.014;39.006;2023-04-24T04:41:44;17.88;;;5.65;;
61635;SDS011;59438;45.014;39.006;2023-04-24T04:44:10;15.73;;;5.70;;
61635;SDS011;59438;45.014;39.006;2023-04-24T04:46:36;15.02;;;5.75;;
61635;SDS011;59438;45.014;39.006;2023-04-24T04:49:04;13.93;;;5.68;;
61635;SDS011;59438;45.014;39.006;2023-04-24T04:51:31;14.00;;;5.70;;
61635;SDS011;59438;45.014;39.006;2023-04-24T04:53:57;19.80;;;6.05;;
61635;SDS011;59438;45.014;39.006;2023-04-24T04:56:23;21.02;;;6.30;;
61635;SDS011;59438;45.014;39.006;2023-04-24T04:58:50;18.52;;;6.30;;
61635;SDS011;59438;45.014;39.006;2023-04-24T05:01:16;21.25;;;6.53;;
61635;SDS011;59438;45.014;39.006;2023-04-24T05:03:42;14.30;;;5.53;;
61635;SDS011;59438;45.014;39.006;2023-04-24T05:06:10;21.27;;;6.03;;
61635;SDS011;59438;45.014;39.006;2023-04-24T05:08:37;8.27;;;5.07;;
61635;SDS011;59438;45.014;39.006;2023-04-24T05:11:03;11.85;;;5.63;;
61635;SDS011;59438;45.014;39.006;2023-04-24T05:13:29;14.32;;;6.00;;
61635;SDS011;59438;45.014;39.006;2023-04-24T05:15:57;19.25;;;6.05;;
61635;SDS011;59438;45.014;39.006;2023-04-24T05:18:23;14.95;;;5.80;;
61635;SDS011;59438;45.014;39.006;2023-04-24T05:20:49;11.55;;;4.95;;
61635;SDS011;59438;45.014;39.006;2023-04-24T05:23:17;12.38;;;5.75;;
61635;SDS011;59438;45.014;39.006;2023-04-24T05:25:44;15.35;;;6.47;;
61635;SDS011;59438;45.014;39.006;2023-04-24T05:28:10;17.45;;;7.70;;
61635;SDS011;59438;45.014;39.006;2023-04-24T05:30:36;10.98;;;6.72;;
61635;SDS011;59438;45.014;39.006;2023-04-24T05:33:03;17.35;;;7.20;;
61635;SDS011;59438;45.014;39.006;2023-04-24T05:35:29;10.70;;;6.00;;
61635;SDS011;59438;45.014;39.006;2023-04-24T05:37:56;9.80;;;5.63;;
61635;SDS011;59438;45.014;39.006;2023-04-24T05:40:24;12.00;;;5.82;;
61635;SDS011;59438;45.014;39.006;2023-04-24T05:42:50;12.13;;;6.22;;
61635;SDS011;59438;45.014;39.006;2023-04-24T05:45:16;12.75;;;5.93;;
61635;SDS011;59438;45.014;39.006;2023-04-24T05:47:43;14.13;;;5.97;;
61635;SDS011;59438;45.014;39.006;2023-04-24T05:50:09;12.10;;;6.75;;
61635;SDS011;59438;45.014;39.006;2023-04-24T05:52:36;19.63;;;6.78;;
61635;SDS011;59438;45.014;39.006;2023-04-24T05:55:02;17.52;;;6.53;;
61635;SDS011;59438;45.014;39.006;2023-04-24T05:57:31;16.13;;;7.05;;
61635;SDS011;59438;45.014;39.006;2023-04-24T05:59:57;17.75;;;6.63;;
61635;SDS011;59438;45.014;39.006;2023-04-24T06:02:23;12.02;;;6.43;;
61635;SDS011;59438;45.014;39.006;2023-04-24T06:04:50;12.15;;;6.40;;
61635;SDS011;59438;45.014;39.006;2023-04-24T06:07:16;10.38;;;6.55;;
61635;SDS011;59438;45.014;39.006;2023-04-24T06:09:43;15.73;;;6.28;;
61635;SDS011;59438;45.014;39.006;2023-04-24T06:12:09;19.35;;;6.47;;
61635;SDS011;59438;45.014;39.006;2023-04-24T06:14:37;17.83;;;6.70;;
61635;SDS011;59438;45.014;39.006;2023-04-24T06:17:03;15.40;;;6.82;;
61635;SDS011;59438;45.014;39.006;2023-04-24T06:19:29;19.40;;;6.65;;
61635;SDS011;59438;45.014;39.006;2023-04-24T06:21:56;14.13;;;6.25;;
61635;SDS011;59438;45.014;39.006;2023-04-24T06:24:22;13.35;;;6.57;;
61635;SDS011;59438;45.014;39.006;2023-04-24T06:26:53;14.38;;;5.90;;
61635;SDS011;59438;45.014;39.006;2023-04-24T06:29:19;15.50;;;6.32;;
61635;SDS011;59438;45.014;39.006;2023-04-24T06:31:47;13.18;;;6.32;;
61635;SDS011;59438;45.014;39.006;2023-04-24T06:34:13;13.30;;;6.72;;
61635;SDS011;59438;45.014;39.006;2023-04-24T06:36:40;15.15;;;6.30;;
61635;SDS011;59438;45.014;39.006;2023-04-24T06:39:06;13.95;;;6.28;;
61635;SDS011;59438;45.014;39.006;2023-04-24T06:41:33;12.93;;;6.20;;
61635;SDS011;59438;45.014;39.006;2023-04-24T06:43:59;13.27;;;6.70;;
61635;SDS011;59438;45.014;39.006;2023-04-24T06:46:25;19.05;;;9.57;;
61635;SDS011;59438;45.014;39.006;2023-04-24T06:48:53;15.93;;;7.85;;
61635;SDS011;59438;45.014;39.006;2023-04-24T06:51:20;15.77;;;7.60;;
61635;SDS011;59438;45.014;39.006;2023-04-24T06:53:46;15.05;;;7.07;;
61635;SDS011;59438;45.014;39.006;2023-04-24T06:56:12;16.92;;;7.60;;
61635;SDS011;59438;45.014;39.006;2023-04-24T06:58:39;14.60;;;7.03;;
61635;SDS011;59438;45.014;39.006;2023-04-24T07:01:05;13.93;;;7.75;;
61635;SDS011;59438;45.014;39.006;2023-04-24T07:03:31;13.30;;;7.70;;
61635;SDS011;59438;45.014;39.006;2023-04-24T07:05:59;18.38;;;7.78;;
61635;SDS011;59438;45.014;39.006;2023-04-24T07:08:26;18.20;;;7.93;;
61635;SDS011;59438;45.014;39.006;2023-04-24T07:10:52;13.20;;;6.05;;
61635;SDS011;59438;45.014;39.006;2023-04-24T07:13:18;11.00;;;6.25;;
61635;SDS011;59438;45.014;39.006;2023-04-24T07:15:45;17.20;;;6.18;;
61635;SDS011;59438;45.014;39.006;2023-04-24T07:18:11;13.20;;;6.10;;
61635;SDS011;59438;45.014;39.006;2023-04-24T07:20:37;15.10;;;6.38;;
61635;SDS011;59438;45.014;39.006;2023-04-24T07:23:05;17.42;;;6.43;;
61635;SDS011;59438;45.014;39.006;2023-04-24T07:25:32;15.10;;;7.03;;
61635;SDS011;59438;45.014;39.006;2023-04-24T07:27:58;10.52;;;6.75;;
61635;SDS011;59438;45.014;39.006;2023-04-24T07:30:25;14.50;;;7.20;;
61635;SDS011;59438;45.014;39.006;2023-04-24T07:32:51;13.48;;;6.47;;
61635;SDS011;59438;45.014;39.006;2023-04-24T07:35:18;13.88;;;6.90;;
61635;SDS011;59438;45.014;39.006;2023-04-24T07:37:44;15.90;;;7.07;;
61635;SDS011;59438;45.014;39.006;2023-04-24T07:40:12;12.15;;;6.95;;
61635;SDS011;59438;45.014;39.006;2023-04-24T07:42:39;15.95;;;7.47;;
61635;SDS011;59438;45.014;39.006;2023-04-24T07:45:06;15.80;;;7.03;;
61635;SDS011;59438;45.014;39.006;2023-04-24T07:47:34;13.73;;;7.57;;
61635;SDS011;59438;45.014;39.006;2023-04-24T07:50:01;22.55;;;7.82;;
61635;SDS011;59438;45.014;39.006;2023-04-24T07:52:27;15.98;;;7.28;;
61635;SDS011;59438;45.014;39.006;2023-04-24T07:54:54;13.00;;;7.20;;
61635;SDS011;59438;45.014;39.006;2023-04-24T07:57:22;11.13;;;6.80;;
61635;SDS011;59438;45.014;39.006;2023-04-24T07:59:48;13.60;;;7.45;;
61635;SDS011;59438;45.014;39.006;2023-04-24T08:02:14;15.48;;;7.15;;
61635;SDS011;59438;45.014;39.006;2023-04-24T08:04:41;12.80;;;7.90;;
61635;SDS011;59438;45.014;39.006;2023-04-24T08:07:07;17.33;;;7.65;;
61635;SDS011;59438;45.014;39.006;2023-04-24T08:09:33;12.05;;;7.05;;
61635;SDS011;59438;45.014;39.006;2023-04-24T08:12:00;14.98;;;7.75;;
61635;SDS011;59438;45.014;39.006;2023-04-24T08:14:28;16.98;;;7.95;;
61635;SDS011;59438;45.014;39.006;2023-04-24T08:16:54;17.25;;;7.75;;
61635;SDS011;59438;45.014;39.006;2023-04-24T08:19:21;19.52;;;8.82;;
61635;SDS011;59438;45.014;39.006;2023-04-24T08:21:47;16.73;;;8.85;;
61635;SDS011;59438;45.014;39.006;2023-04-24T08:24:13;16.33;;;8.55;;
61635;SDS011;59438;45.014;39.006;2023-04-24T08:26:40;14.95;;;8.02;;
61635;SDS011;59438;45.014;39.006;2023-04-24T08:29:06;20.48;;;8.73;;
61635;SDS011;59438;45.014;39.006;2023-04-24T08:31:34;11.68;;;7.47;;
61635;SDS011;59438;45.014;39.006;2023-04-24T08:34:00;12.18;;;7.60;;
61635;SDS011;59438;45.014;39.006;2023-04-24T08:36:27;14.32;;;7.28;;
61635;SDS011;59438;45.014;39.006;2023-04-24T08:38:53;15.32;;;8.35;;
61635;SDS011;59438;45.014;39.006;2023-04-24T08:41:20;12.50;;;7.95;;
61635;SDS011;59438;45.014;39.006;2023-04-24T08:43:47;15.55;;;7.28;;
61635;SDS011;59438;45.014;39.006;2023-04-24T08:46:14;15.85;;;7.78;;
61635;SDS011;59438;45.014;39.006;2023-04-24T08:48:43;15.32;;;7.63;;
61635;SDS011;59438;45.014;39.006;2023-04-24T08:51:10;11.70;;;7.13;;
61635;SDS011;59438;45.014;39.006;2023-04-24T08:53:37;13.65;;;7.70;;
61635;SDS011;59438;45.014;39.006;2023-04-24T08:56:03;16.65;;;7.22;;
61635;SDS011;59438;45.014;39.006;2023-04-24T08:58:31;10.55;;;7.20;;
61635;SDS011;59438;45.014;39.006;2023-04-24T09:00:59;10.02;;;7.18;;
61635;SDS011;59438;45.014;39.006;2023-04-24T09:03:26;15.93;;;7.85;;
61635;SDS011;59438;45.014;39.006;2023-04-24T09:05:55;12.32;;;7.20;;
61635;SDS011;59438;45.014;39.006;2023-04-24T09:08:24;11.18;;;7.80;;
61635;SDS011;59438;45.014;39.006;2023-04-24T09:10:51;13.75;;;8.70;;
61635;SDS011;59438;45.014;39.006;2023-04-24T09:13:18;18.00;;;12.57;;
61635;SDS011;59438;45.014;39.006;2023-04-24T09:15:47;17.23;;;10.43;;
61635;SDS011;59438;45.014;39.006;2023-04-24T09:18:13;19.50;;;10.90;;
61635;SDS011;59438;45.014;39.006;2023-04-24T09:23:26;17.45;;;11.73;;
61635;SDS011;59438;45.014;39.006;2023-04-24T09:25:54;17.73;;;11.55;;
61635;SDS011;59438;45.014;39.006;2023-04-24T09:28:23;19.48;;;12.13;;
61635;SDS011;59438;45.014;39.006;2023-04-24T09:31:01;20.15;;;12.20;;
61635;SDS011;59438;45.014;39.006;2023-04-24T09:33:31;19.00;;;11.88;;
61635;SDS011;59438;45.014;39.006;2023-04-24T09:35:57;22.42;;;11.82;;
61635;SDS011;59438;45.014;39.006;2023-04-24T09:38:32;18.33;;;11.52;;
61635;SDS011;59438;45.014;39.006;2023-04-24T09:41:00;19.50;;;11.50;;
61635;SDS011;59438;45.014;39.006;2023-04-24T09:43:27;19.25;;;10.88;;
61635;SDS011;59438;45.014;39.006;2023-04-24T09:45:55;16.95;;;10.48;;
61635;SDS011;59438;45.014;39.006;2023-04-24T09:48:29;18.10;;;10.80;;
61635;SDS011;59438;45.014;39.006;2023-04-24T09:50:56;18.63;;;10.98;;
61635;SDS011;59438;45.014;39.006;2023-04-24T09:53:25;13.93;;;9.95;;
61635;SDS011;59438;45.014;39.006;2023-04-24T09:55:51;18.60;;;10.95;;
61635;SDS011;59438;45.014;39.006;2023-04-24T09:58:18;15.68;;;10.10;;
61635;SDS011;59438;45.014;39.006;2023-04-24T10:00:50;20.42;;;9.35;;
61635;SDS011;59438;45.014;39.006;2023-04-24T10:03:19;28.40;;;9.25;;
61635;SDS011;59438;45.014;39.006;2023-04-24T10:05:47;18.65;;;10.55;;
61635;SDS011;59438;45.014;39.006;2023-04-24T10:08:13;23.38;;;12.38;;
61635;SDS011;59438;45.014;39.006;2023-04-24T10:10:43;18.90;;;13.90;;
61635;SDS011;59438;45.014;39.006;2023-04-24T10:13:11;20.70;;;14.27;;
61635;SDS011;59438;45.014;39.006;2023-04-24T10:15:39;17.58;;;11.20;;
61635;SDS011;59438;45.014;39.006;2023-04-24T10:18:06;17.77;;;11.55;;
61635;SDS011;59438;45.014;39.006;2023-04-24T10:20:34;16.67;;;10.55;;
61635;SDS011;59438;45.014;39.006;2023-04-24T10:23:02;14.13;;;10.32;;
61635;SDS011;59438;45.014;39.006;2023-04-24T10:25:31;17.42;;;10.57;;
61635;SDS011;59438;45.014;39.006;2023-04-24T10:28:00;18.15;;;10.60;;
61635;SDS011;59438;45.014;39.006;2023-04-24T10:30:27;20.17;;;10.60;;
61635;SDS011;59438;45.014;39.006;2023-04-24T10:32:55;18.63;;;10.15;;
61635;SDS011;59438;45.014;39.006;2023-04-24T10:35:22;17.05;;;10.32;;
61635;SDS011;59438;45.014;39.006;2023-04-24T10:37:50;17.25;;;9.88;;
61635;SDS011;59438;45.014;39.006;2023-04-24T10:40:25;18.02;;;9.65;;
61635;SDS011;59438;45.014;39.006;2023-04-24T10:42:55;16.70;;;9.95;;
61635;SDS011;59438;45.014;39.006;2023-04-24T10:45:23;18.33;;;9.82;;
61635;SDS011;59438;45.014;39.006;2023-04-24T10:47:53;15.93;;;10.00;;
61635;SDS011;59438;45.014;39.006;2023-04-24T10:50:23;13.40;;;9.40;;
61635;SDS011;59438;45.014;39.006;2023-04-24T10:52:49;13.50;;;8.88;;
61635;SDS011;59438;45.014;39.006;2023-04-24T10:55:15;14.18;;;8.90;;
61635;SDS011;59438;45.014;39.006;2023-04-24T11:00:31;17.55;;;9.93;;
61635;SDS011;59438;45.014;39.006;2023-04-24T11:03:01;17.77;;;9.45;;
61635;SDS011;59438;45.014;39.006;2023-04-24T11:08:29;20.33;;;8.95;;
61635;SDS011;59438;45.014;39.006;2023-04-24T11:10:57;16.00;;;9.93;;
61635;SDS011;59438;45.014;39.006;2023-04-24T11:13:27;13.40;;;9.82;;
61635;SDS011;59438;45.014;39.006;2023-04-24T11:16:21;16.60;;;9.65;;
61635;SDS011;59438;45.014;39.006;2023-04-24T11:18:59;14.77;;;9.95;;
61635;SDS011;59438;45.014;39.006;2023-04-24T11:21:28;15.80;;;10.45;;
61635;SDS011;59438;45.014;39.006;2023-04-24T11:23:57;18.05;;;10.88;;
61635;SDS011;59438;45.014;39.006;2023-04-24T11:26:24;15.68;;;10.65;;
61635;SDS011;59438;45.014;39.006;2023-04-24T11:28:51;14.63;;;10.23;;
61635;SDS011;59438;45.014;39.006;2023-04-24T11:31:38;15.25;;;10.13;;
61635;SDS011;59438;45.014;39.006;2023-04-24T11:34:07;17.77;;;10.63;;
61635;SDS011;59438;45.014;39.006;2023-04-24T11:36:34;16.88;;;11.00;;
61635;SDS011;59438;45.014;39.006;2023-04-24T11:39:01;22.13;;;10.82;;
61635;SDS011;59438;45.014;39.006;2023-04-24T11:41:27;15.60;;;10.52;;
61635;SDS011;59438;45.014;39.006;2023-04-24T11:43:54;17.73;;;10.82;;
61635;SDS011;59438;45.014;39.006;2023-04-24T11:46:21;17.65;;;11.70;;
61635;SDS011;59438;45.014;39.006;2023-04-24T11:48:49;17.73;;;10.73;;
61635;SDS011;59438;45.014;39.006;2023-04-24T11:51:16;20.63;;;11.63;;
61635;SDS011;59438;45.014;39.006;2023-04-24T11:53:42;15.65;;;10.70;;
61635;SDS011;59438;45.014;39.006;2023-04-24T11:56:08;16.95;;;12.07;;
61635;SDS011;59438;45.014;39.006;2023-04-24T11:58:35;19.55;;;12.27;;
61635;SDS011;59438;45.014;39.006;2023-04-24T12:01:03;19.98;;;11.80;;
61635;SDS011;59438;45.014;39.006;2023-04-24T12:03:30;22.42;;;11.15;;
61635;SDS011;59438;45.014;39.006;2023-04-24T12:06:06;17.42;;;10.48;;
61635;SDS011;59438;45.014;39.006;2023-04-24T12:08:33;17.17;;;11.60;;
61635;SDS011;59438;45.014;39.006;2023-04-24T12:10:59;15.68;;;10.43;;
61635;SDS011;59438;45.014;39.006;2023-04-24T12:13:26;18.20;;;10.52;;
61635;SDS011;59438;45.014;39.006;2023-04-24T12:15:53;16.95;;;11.18;;
61635;SDS011;59438;45.014;39.006;2023-04-24T12:18:21;17.65;;;11.48;;
61635;SDS011;59438;45.014;39.006;2023-04-24T12:20:48;20.17;;;11.23;;
61635;SDS011;59438;45.014;39.006;2023-04-24T12:23:16;17.17;;;10.77;;
61635;SDS011;59438;45.014;39.006;2023-04-24T12:25:42;16.27;;;10.77;;
61635;SDS011;59438;45.014;39.006;2023-04-24T12:28:09;17.00;;;10.60;;
61635;SDS011;59438;45.014;39.006;2023-04-24T12:30:39;16.38;;;10.90;;
61635;SDS011;59438;45.014;39.006;2023-04-24T12:33:06;18.40;;;10.65;;
61635;SDS011;59438;45.014;39.006;2023-04-24T12:35:33;16.15;;;10.48;;
61635;SDS011;59438;45.014;39.006;2023-04-24T12:38:05;17.83;;;11.40;;
61635;SDS011;59438;45.014;39.006;2023-04-24T12:40:33;19.13;;;11.45;;
61635;SDS011;59438;45.014;39.006;2023-04-24T12:42:59;14.60;;;10.40;;
61635;SDS011;59438;45.014;39.006;2023-04-24T12:45:25;14.57;;;10.10;;
61635;SDS011;59438;45.014;39.006;2023-04-24T12:47:52;13.93;;;10.45;;
61635;SDS011;59438;45.014;39.006;2023-04-24T12:50:18;14.57;;;9.80;;
61635;SDS011;59438;45.014;39.006;2023-04-24T12:52:45;16.35;;;10.95;;
61635;SDS011;59438;45.014;39.006;2023-04-24T12:55:11;20.33;;;10.80;;
61635;SDS011;59438;45.014;39.006;2023-04-24T12:57:39;15.70;;;10.40;;
61635;SDS011;59438;45.014;39.006;2023-04-24T13:00:06;14.05;;;10.25;;
61635;SDS011;59438;45.014;39.006;2023-04-24T13:02:34;16.48;;;10.18;;
61635;SDS011;59438;45.014;39.006;2023-04-24T13:05:00;16.90;;;10.50;;
61635;SDS011;59438;45.014;39.006;2023-04-24T13:07:27;14.63;;;10.07;;
61635;SDS011;59438;45.014;39.006;2023-04-24T13:09:54;15.55;;;10.05;;
61635;SDS011;59438;45.014;39.006;2023-04-24T13:12:21;17.00;;;10.40;;
61635;SDS011;59438;45.014;39.006;2023-04-24T13:14:49;18.45;;;10.23;;
61635;SDS011;59438;45.014;39.006;2023-04-24T13:17:15;14.50;;;9.60;;
61635;SDS011;59438;45.014;39.006;2023-04-24T13:19:42;15.40;;;10.52;;
61635;SDS011;59438;45.014;39.006;2023-04-24T13:22:09;14.82;;;10.20;;
61635;SDS011;59438;45.014;39.006;2023-04-24T13:24:37;13.65;;;9.63;;
61635;SDS011;59438;45.014;39.006;2023-04-24T13:27:04;14.10;;;9.75;;
61635;SDS011;59438;45.014;39.006;2023-04-24T13:29:31;13.50;;;9.57;;
61635;SDS011;59438;45.014;39.006;2023-04-24T13:31:58;15.85;;;10.25;;
61635;SDS011;59438;45.014;39.006;2023-04-24T13:34:26;15.40;;;10.00;;
61635;SDS011;59438;45.014;39.006;2023-04-24T13:36:52;15.85;;;10.20;;
61635;SDS011;59438;45.014;39.006;2023-04-24T13:39:20;17.48;;;9.80;;
61635;SDS011;59438;45.014;39.006;2023-04-24T13:41:46;16.67;;;10.88;;
61635;SDS011;59438;45.014;39.006;2023-04-24T13:44:12;19.02;;;10.88;;
61635;SDS011;59438;45.014;39.006;2023-04-24T13:46:39;17.17;;;11.20;;
61635;SDS011;59438;45.014;39.006;2023-04-24T13:49:07;15.90;;;10.63;;
61635;SDS011;59438;45.014;39.006;2023-04-24T13:51:34;19.67;;;11.20;;
61635;SDS011;59438;45.014;39.006;2023-04-24T13:54:00;17.33;;;10.18;;
61635;SDS011;59438;45.014;39.006;2023-04-24T13:56:26;19.83;;;11.52;;
61635;SDS011;59438;45.014;39.006;2023-04-24T13:58:53;15.77;;;10.75;;
61635;SDS011;59438;45.014;39.006;2023-04-24T14:01:19;17.33;;;10.93;;
61635;SDS011;59438;45.014;39.006;2023-04-24T14:03:46;17.58;;;11.25;;
61635;SDS011;59438;45.014;39.006;2023-04-24T14:06:14;16.73;;;11.38;;
61635;SDS011;59438;45.014;39.006;2023-04-24T14:08:40;21.98;;;12.35;;
61635;SDS011;59438;45.014;39.006;2023-04-24T14:11:06;23.38;;;12.10;;
61635;SDS011;59438;45.014;39.006;2023-04-24T14:13:33;21.13;;;11.77;;
61635;SDS011;59438;45.014;39.006;2023-04-24T14:16:00;21.13;;;13.02;;
61635;SDS011;59438;45.014;39.006;2023-04-24T14:18:26;22.08;;;12.75;;
61635;SDS011;59438;45.014;39.006;2023-04-24T14:20:52;16.92;;;12.38;;
61635;SDS011;59438;45.014;39.006;2023-04-24T14:23:20;21.23;;;14.13;;
61635;SDS011;59438;45.014;39.006;2023-04-24T14:25:47;19.38;;;12.40;;
61635;SDS011;59438;45.014;39.006;2023-04-24T14:28:13;23.15;;;12.60;;